sensor_id;sensor_type;location;lat;lon;timestamp;P1;durP1;ratioP1;P2;durP2;ratioP2
34242;SDS011;20504;43.214;27.920;2023-01-09T00:02:20;10.18;;;4.90;;
34242;SDS011;20504;43.214;27.920;2023-01-09T00:04:45;9.37;;;5.10;;
34242;SDS011;20504;43.214;27.920;2023-01-09T00:07:11;6.47;;;5.10;;
34242;SDS011;20504;43.214;27.920;2023-01-09T00:09:36;14.07;;;5.00;;
34242;SDS011;20504;43.214;27.920;2023-01-09T00:12:02;8.33;;;4.53;;
34242;SDS011;20504;43.214;27.920;2023-01-09T00:14:27;7.73;;;5.00;;
34242;SDS011;20504;43.214;27.920;2023-01-09T00:16:54;9.73;;;4.87;;
34242;SDS011;20504;43.214;27.920;2023-01-09T00:19:19;7.25;;;4.47;;
34242;SDS011;20504;43.214;27.920;2023-01-09T00:21:45;10.03;;;4.87;;
34242;SDS011;20504;43.214;27.920;2023-01-09T00:24:10;8.83;;;4.90;;
34242;SDS011;20504;43.214;27.920;2023-01-09T00:26:36;11.80;;;5.07;;
34242;SDS011;20504;43.214;27.920;2023-01-09T00:29:02;7.40;;;4.40;;
34242;SDS011;20504;43.214;27.920;2023-01-09T00:31:27;9.65;;;5.00;;
34242;SDS011;20504;43.214;27.920;2023-01-09T00:34:00;7.73;;;4.83;;
34242;SDS011;20504;43.214;27.920;2023-01-09T00:36:29;7.30;;;4.72;;
34242;SDS011;20504;43.214;27.920;2023-01-09T00:38:54;7.23;;;4.23;;
34242;SDS011;20504;43.214;27.920;2023-01-09T00:44:09;7.68;;;4.20;;
34242;SDS011;20504;43.214;27.920;2023-01-09T00:46:40;9.32;;;4.97;;
34242;SDS011;20504;43.214;27.920;2023-01-09T00:49:09;7.47;;;4.72;;
34242;SDS011;20504;43.214;27.920;2023-01-09T00:51:37;7.93;;;4.80;;
34242;SDS011;20504;43.214;27.920;2023-01-09T00:54:04;13.13;;;5.57;;
34242;SDS011;20504;43.214;27.920;2023-01-09T00:56:30;10.63;;;4.33;;
34242;SDS011;20504;43.214;27.920;2023-01-09T00:58:56;4.72;;;3.50;;
34242;SDS011;20504;43.214;27.920;2023-01-09T01:01:21;11.93;;;5.47;;
34242;SDS011;20504;43.214;27.920;2023-01-09T01:03:47;8.17;;;4.83;;
34242;SDS011;20504;43.214;27.920;2023-01-09T01:06:12;8.13;;;5.20;;
34242;SDS011;20504;43.214;27.920;2023-01-09T01:08:56;8.27;;;4.88;;
34242;SDS011;20504;43.214;27.920;2023-01-09T01:11:22;6.90;;;4.53;;
34242;SDS011;20504;43.214;27.920;2023-01-09T01:13:48;5.40;;;4.45;;
34242;SDS011;20504;43.214;27.920;2023-01-09T01:16:13;9.13;;;5.33;;
34242;SDS011;20504;43.214;27.920;2023-01-09T01:18:39;6.37;;;4.63;;
34242;SDS011;20504;43.214;27.920;2023-01-09T01:21:09;8.18;;;4.32;;
34242;SDS011;20504;43.214;27.920;2023-01-09T01:23:36;6.88;;;4.70;;
34242;SDS011;20504;43.214;27.920;2023-01-09T01:26:05;6.50;;;4.20;;
34242;SDS011;20504;43.214;27.920;2023-01-09T01:28:32;9.65;;;4.40;;
34242;SDS011;20504;43.214;27.920;2023-01-09T01:30:58;11.03;;;5.70;;
34242;SDS011;20504;43.214;27.920;2023-01-09T01:33:24;7.93;;;4.68;;
34242;SDS011;20504;43.214;27.920;2023-01-09T01:35:50;8.43;;;5.70;;
34242;SDS011;20504;43.214;27.920;2023-01-09T01:38:15;12.37;;;5.00;;
34242;SDS011;20504;43.214;27.920;2023-01-09T01:40:41;8.00;;;4.53;;
34242;SDS011;20504;43.214;27.920;2023-01-09T01:43:07;9.90;;;4.80;;
34242;SDS011;20504;43.214;27.920;2023-01-09T01:45:36;6.35;;;4.97;;
34242;SDS011;20504;43.214;27.920;2023-01-09T01:48:11;12.55;;;5.38;;
34242;SDS011;20504;43.214;27.920;2023-01-09T01:50:45;13.93;;;5.35;;
34242;SDS011;20504;43.214;27.920;2023-01-09T01:53:34;10.07;;;5.22;;
34242;SDS011;20504;43.214;27.920;2023-01-09T01:58:29;9.77;;;4.30;;
34242;SDS011;20504;43.214;27.920;2023-01-09T02:03:24;7.50;;;4.57;;
34242;SDS011;20504;43.214;27.920;2023-01-09T02:05:51;8.10;;;4.57;;
34242;SDS011;20504;43.214;27.920;2023-01-09T02:08:17;13.80;;;5.13;;
34242;SDS011;20504;43.214;27.920;2023-01-09T02:10:43;6.30;;;5.10;;
34242;SDS011;20504;43.214;27.920;2023-01-09T02:13:10;10.25;;;4.60;;
34242;SDS011;20504;43.214;27.920;2023-01-09T02:21:03;7.65;;;4.93;;
34242;SDS011;20504;43.214;27.920;2023-01-09T02:26:33;6.68;;;3.88;;
34242;SDS011;20504;43.214;27.920;2023-01-09T02:34:33;13.25;;;5.22;;
34242;SDS011;20504;43.214;27.920;2023-01-09T02:37:20;9.85;;;4.40;;
34242;SDS011;20504;43.214;27.920;2023-01-09T02:42:51;11.68;;;4.35;;
34242;SDS011;20504;43.214;27.920;2023-01-09T02:45:19;7.15;;;3.65;;
34242;SDS011;20504;43.214;27.920;2023-01-09T02:47:45;11.70;;;5.03;;
34242;SDS011;20504;43.214;27.920;2023-01-09T02:56:17;9.30;;;3.40;;
34242;SDS011;20504;43.214;27.920;2023-01-09T03:02:38;8.82;;;3.40;;
34242;SDS011;20504;43.214;27.920;2023-01-09T03:08:02;8.05;;;3.22;;
34242;SDS011;20504;43.214;27.920;2023-01-09T03:10:34;6.90;;;2.97;;
34242;SDS011;20504;43.214;27.920;2023-01-09T03:13:05;10.13;;;3.25;;
34242;SDS011;20504;43.214;27.920;2023-01-09T03:15:36;8.20;;;3.40;;
34242;SDS011;20504;43.214;27.920;2023-01-09T03:18:06;8.18;;;3.28;;
34242;SDS011;20504;43.214;27.920;2023-01-09T03:20:34;5.97;;;2.88;;
34242;SDS011;20504;43.214;27.920;2023-01-09T03:23:02;7.53;;;3.05;;
34242;SDS011;20504;43.214;27.920;2023-01-09T03:25:30;7.78;;;2.78;;
34242;SDS011;20504;43.214;27.920;2023-01-09T03:27:57;11.25;;;3.58;;
34242;SDS011;20504;43.214;27.920;2023-01-09T03:30:29;7.82;;;3.33;;
34242;SDS011;20504;43.214;27.920;2023-01-09T03:32:56;7.78;;;2.65;;
34242;SDS011;20504;43.214;27.920;2023-01-09T03:35:22;7.47;;;3.03;;
34242;SDS011;20504;43.214;27.920;2023-01-09T03:37:48;12.93;;;3.33;;
34242;SDS011;20504;43.214;27.920;2023-01-09T03:40:15;9.48;;;2.72;;
34242;SDS011;20504;43.214;27.920;2023-01-09T03:42:42;8.95;;;2.60;;
34242;SDS011;20504;43.214;27.920;2023-01-09T03:45:07;11.33;;;4.00;;
34242;SDS011;20504;43.214;27.920;2023-01-09T03:47:33;5.43;;;2.17;;
34242;SDS011;20504;43.214;27.920;2023-01-09T03:49:58;12.23;;;3.10;;
34242;SDS011;20504;43.214;27.920;2023-01-09T03:52:24;7.87;;;2.67;;
34242;SDS011;20504;43.214;27.920;2023-01-09T03:54:49;5.83;;;2.67;;
34242;SDS011;20504;43.214;27.920;2023-01-09T03:57:15;9.67;;;2.77;;
34242;SDS011;20504;43.214;27.920;2023-01-09T03:59:40;6.27;;;2.40;;
34242;SDS011;20504;43.214;27.920;2023-01-09T04:02:06;10.87;;;3.17;;
34242;SDS011;20504;43.214;27.920;2023-01-09T04:04:31;6.33;;;2.97;;
34242;SDS011;20504;43.214;27.920;2023-01-09T04:06:57;12.63;;;2.50;;
34242;SDS011;20504;43.214;27.920;2023-01-09T04:09:22;8.10;;;2.80;;
34242;SDS011;20504;43.214;27.920;2023-01-09T04:11:48;9.13;;;2.60;;
34242;SDS011;20504;43.214;27.920;2023-01-09T04:14:13;10.50;;;3.40;;
34242;SDS011;20504;43.214;27.920;2023-01-09T04:16:39;12.27;;;2.97;;
34242;SDS011;20504;43.214;27.920;2023-01-09T04:19:05;8.77;;;2.90;;
34242;SDS011;20504;43.214;27.920;2023-01-09T04:21:31;11.50;;;2.45;;
34242;SDS011;20504;43.214;27.920;2023-01-09T04:23:56;10.07;;;3.37;;
34242;SDS011;20504;43.214;27.920;2023-01-09T04:26:22;6.63;;;2.93;;
34242;SDS011;20504;43.214;27.920;2023-01-09T04:28:47;17.23;;;3.13;;
34242;SDS011;20504;43.214;27.920;2023-01-09T04:31:13;7.67;;;2.70;;
34242;SDS011;20504;43.214;27.920;2023-01-09T04:33:38;10.83;;;2.60;;
34242;SDS011;20504;43.214;27.920;2023-01-09T04:36:04;9.60;;;3.07;;
34242;SDS011;20504;43.214;27.920;2023-01-09T04:38:31;9.45;;;2.28;;
34242;SDS011;20504;43.214;27.920;2023-01-09T04:40:56;14.67;;;2.73;;
34242;SDS011;20504;43.214;27.920;2023-01-09T04:43:22;14.00;;;2.87;;
34242;SDS011;20504;43.214;27.920;2023-01-09T04:45:47;26.23;;;3.87;;
34242;SDS011;20504;43.214;27.920;2023-01-09T04:48:13;4.47;;;2.53;;
34242;SDS011;20504;43.214;27.920;2023-01-09T04:50:38;10.77;;;2.80;;
34242;SDS011;20504;43.214;27.920;2023-01-09T04:53:04;9.67;;;2.97;;
34242;SDS011;20504;43.214;27.920;2023-01-09T04:55:30;9.00;;;3.35;;
34242;SDS011;20504;43.214;27.920;2023-01-09T04:57:56;11.53;;;2.83;;
34242;SDS011;20504;43.214;27.920;2023-01-09T05:00:21;10.57;;;2.80;;
34242;SDS011;20504;43.214;27.920;2023-01-09T05:02:47;10.77;;;3.40;;
34242;SDS011;20504;43.214;27.920;2023-01-09T05:05:12;14.53;;;3.80;;
34242;SDS011;20504;43.214;27.920;2023-01-09T05:07:38;21.33;;;3.90;;
34242;SDS011;20504;43.214;27.920;2023-01-09T05:10:04;14.20;;;3.17;;
34242;SDS011;20504;43.214;27.920;2023-01-09T05:12:30;11.77;;;3.03;;
34242;SDS011;20504;43.214;27.920;2023-01-09T05:14:55;7.77;;;2.87;;
34242;SDS011;20504;43.214;27.920;2023-01-09T05:17:22;16.95;;;3.42;;
34242;SDS011;20504;43.214;27.920;2023-01-09T05:19:48;6.47;;;2.80;;
34242;SDS011;20504;43.214;27.920;2023-01-09T05:22:13;10.97;;;3.20;;
34242;SDS011;20504;43.214;27.920;2023-01-09T05:24:39;8.33;;;3.43;;
34242;SDS011;20504;43.214;27.920;2023-01-09T05:27:05;14.20;;;3.37;;
34242;SDS011;20504;43.214;27.920;2023-01-09T05:29:31;9.53;;;2.87;;
34242;SDS011;20504;43.214;27.920;2023-01-09T05:31:56;7.80;;;2.90;;
34242;SDS011;20504;43.214;27.920;2023-01-09T05:34:22;7.60;;;3.27;;
34242;SDS011;20504;43.214;27.920;2023-01-09T05:36:48;11.75;;;4.65;;
34242;SDS011;20504;43.214;27.920;2023-01-09T05:39:13;12.17;;;3.97;;
34242;SDS011;20504;43.214;27.920;2023-01-09T05:41:39;27.33;;;10.10;;
34242;SDS011;20504;43.214;27.920;2023-01-09T05:44:04;22.13;;;4.20;;
34242;SDS011;20504;43.214;27.920;2023-01-09T05:46:30;9.20;;;2.33;;
34242;SDS011;20504;43.214;27.920;2023-01-09T05:48:56;11.05;;;4.90;;
34242;SDS011;20504;43.214;27.920;2023-01-09T05:51:21;8.13;;;2.67;;
34242;SDS011;20504;43.214;27.920;2023-01-09T05:53:47;9.63;;;3.37;;
34242;SDS011;20504;43.214;27.920;2023-01-09T05:56:13;11.20;;;3.63;;
34242;SDS011;20504;43.214;27.920;2023-01-09T05:58:39;10.15;;;2.80;;
34242;SDS011;20504;43.214;27.920;2023-01-09T06:01:04;19.03;;;4.50;;
34242;SDS011;20504;43.214;27.920;2023-01-09T06:03:30;12.30;;;3.90;;
34242;SDS011;20504;43.214;27.920;2023-01-09T06:05:58;20.60;;;4.03;;
34242;SDS011;20504;43.214;27.920;2023-01-09T06:08:24;17.03;;;4.07;;
34242;SDS011;20504;43.214;27.920;2023-01-09T06:10:50;11.07;;;3.60;;
34242;SDS011;20504;43.214;27.920;2023-01-09T06:13:16;12.35;;;4.00;;
34242;SDS011;20504;43.214;27.920;2023-01-09T06:15:41;15.40;;;3.40;;
34242;SDS011;20504;43.214;27.920;2023-01-09T06:18:07;9.97;;;3.83;;
34242;SDS011;20504;43.214;27.920;2023-01-09T06:20:33;15.77;;;3.47;;
34242;SDS011;20504;43.214;27.920;2023-01-09T06:22:58;13.57;;;3.60;;
34242;SDS011;20504;43.214;27.920;2023-01-09T06:25:24;10.77;;;3.37;;
34242;SDS011;20504;43.214;27.920;2023-01-09T06:27:49;12.57;;;4.10;;
34242;SDS011;20504;43.214;27.920;2023-01-09T06:30:16;12.18;;;3.30;;
34242;SDS011;20504;43.214;27.920;2023-01-09T06:35:08;16.98;;;4.45;;
34242;SDS011;20504;43.214;27.920;2023-01-09T06:37:34;12.88;;;3.40;;
34242;SDS011;20504;43.214;27.920;2023-01-09T06:39:59;16.67;;;3.83;;
34242;SDS011;20504;43.214;27.920;2023-01-09T06:42:25;10.50;;;3.30;;
34242;SDS011;20504;43.214;27.920;2023-01-09T06:44:50;16.63;;;3.63;;
34242;SDS011;20504;43.214;27.920;2023-01-09T06:47:16;18.20;;;4.57;;
34242;SDS011;20504;43.214;27.920;2023-01-09T06:49:41;9.63;;;3.23;;
34242;SDS011;20504;43.214;27.920;2023-01-09T06:52:06;11.83;;;3.37;;
34242;SDS011;20504;43.214;27.920;2023-01-09T06:54:33;13.10;;;3.70;;
34242;SDS011;20504;43.214;27.920;2023-01-09T06:56:58;13.27;;;4.18;;
34242;SDS011;20504;43.214;27.920;2023-01-09T06:59:24;13.33;;;3.63;;
34242;SDS011;20504;43.214;27.920;2023-01-09T07:01:50;9.57;;;3.40;;
34242;SDS011;20504;43.214;27.920;2023-01-09T07:04:16;9.53;;;3.30;;
34242;SDS011;20504;43.214;27.920;2023-01-09T07:06:42;10.87;;;2.93;;
34242;SDS011;20504;43.214;27.920;2023-01-09T07:09:08;11.48;;;3.75;;
34242;SDS011;20504;43.214;27.920;2023-01-09T07:11:37;12.40;;;3.50;;
34242;SDS011;20504;43.214;27.920;2023-01-09T07:14:03;12.60;;;3.28;;
34242;SDS011;20504;43.214;27.920;2023-01-09T07:16:29;10.77;;;3.03;;
34242;SDS011;20504;43.214;27.920;2023-01-09T07:18:54;11.07;;;3.93;;
34242;SDS011;20504;43.214;27.920;2023-01-09T07:21:20;14.20;;;4.50;;
34242;SDS011;20504;43.214;27.920;2023-01-09T07:23:46;14.57;;;3.40;;
34242;SDS011;20504;43.214;27.920;2023-01-09T07:26:11;19.33;;;4.67;;
34242;SDS011;20504;43.214;27.920;2023-01-09T07:28:37;9.37;;;3.40;;
34242;SDS011;20504;43.214;27.920;2023-01-09T07:31:02;13.77;;;3.60;;
34242;SDS011;20504;43.214;27.920;2023-01-09T07:33:28;10.73;;;3.80;;
34242;SDS011;20504;43.214;27.920;2023-01-09T07:35:54;9.60;;;3.30;;
34242;SDS011;20504;43.214;27.920;2023-01-09T07:38:19;22.40;;;4.37;;
34242;SDS011;20504;43.214;27.920;2023-01-09T07:40:45;11.47;;;4.13;;
34242;SDS011;20504;43.214;27.920;2023-01-09T07:43:10;10.70;;;4.07;;
34242;SDS011;20504;43.214;27.920;2023-01-09T07:45:36;14.13;;;4.40;;
34242;SDS011;20504;43.214;27.920;2023-01-09T07:48:01;13.67;;;4.20;;
34242;SDS011;20504;43.214;27.920;2023-01-09T07:50:27;18.93;;;4.47;;
34242;SDS011;20504;43.214;27.920;2023-01-09T07:52:52;16.07;;;4.27;;
34242;SDS011;20504;43.214;27.920;2023-01-09T07:55:18;14.90;;;5.13;;
34242;SDS011;20504;43.214;27.920;2023-01-09T07:58:02;14.60;;;5.07;;
34242;SDS011;20504;43.214;27.920;2023-01-09T08:00:30;10.57;;;4.15;;
34242;SDS011;20504;43.214;27.920;2023-01-09T08:03:25;13.82;;;4.00;;
34242;SDS011;20504;43.214;27.920;2023-01-09T08:05:52;8.93;;;3.45;;
34242;SDS011;20504;43.214;27.920;2023-01-09T08:08:29;11.45;;;4.53;;
34242;SDS011;20504;43.214;27.920;2023-01-09T08:10:55;12.63;;;4.22;;
34242;SDS011;20504;43.214;27.920;2023-01-09T08:15:47;11.13;;;3.47;;
34242;SDS011;20504;43.214;27.920;2023-01-09T08:18:16;9.15;;;3.88;;
34242;SDS011;20504;43.214;27.920;2023-01-09T08:20:43;21.30;;;4.90;;
34242;SDS011;20504;43.214;27.920;2023-01-09T08:23:24;14.73;;;4.07;;
34242;SDS011;20504;43.214;27.920;2023-01-09T08:25:55;11.48;;;4.05;;
34242;SDS011;20504;43.214;27.920;2023-01-09T08:28:21;11.97;;;3.50;;
34242;SDS011;20504;43.214;27.920;2023-01-09T08:30:46;12.73;;;3.70;;
34242;SDS011;20504;43.214;27.920;2023-01-09T08:33:12;16.43;;;3.97;;
34242;SDS011;20504;43.214;27.920;2023-01-09T08:35:38;14.63;;;3.27;;
34242;SDS011;20504;43.214;27.920;2023-01-09T08:38:03;14.73;;;4.20;;
34242;SDS011;20504;43.214;27.920;2023-01-09T08:40:29;14.77;;;3.67;;
34242;SDS011;20504;43.214;27.920;2023-01-09T08:42:54;12.03;;;3.70;;
34242;SDS011;20504;43.214;27.920;2023-01-09T08:45:38;8.75;;;3.45;;
34242;SDS011;20504;43.214;27.920;2023-01-09T08:48:22;15.85;;;3.80;;
34242;SDS011;20504;43.214;27.920;2023-01-09T08:50:48;14.70;;;4.23;;
34242;SDS011;20504;43.214;27.920;2023-01-09T08:53:13;13.17;;;3.77;;
34242;SDS011;20504;43.214;27.920;2023-01-09T08:55:39;18.57;;;4.10;;
34242;SDS011;20504;43.214;27.920;2023-01-09T08:58:05;13.75;;;3.78;;
34242;SDS011;20504;43.214;27.920;2023-01-09T09:00:31;15.47;;;3.97;;
34242;SDS011;20504;43.214;27.920;2023-01-09T09:02:57;15.00;;;3.90;;
34242;SDS011;20504;43.214;27.920;2023-01-09T09:05:25;17.98;;;4.07;;
34242;SDS011;20504;43.214;27.920;2023-01-09T09:07:53;14.07;;;3.35;;
34242;SDS011;20504;43.214;27.920;2023-01-09T09:10:20;13.95;;;4.13;;
34242;SDS011;20504;43.214;27.920;2023-01-09T09:12:47;12.95;;;4.45;;
34242;SDS011;20504;43.214;27.920;2023-01-09T09:15:15;15.52;;;4.63;;
34242;SDS011;20504;43.214;27.920;2023-01-09T09:17:48;17.83;;;5.20;;
34242;SDS011;20504;43.214;27.920;2023-01-09T09:20:19;11.00;;;4.40;;
34242;SDS011;20504;43.214;27.920;2023-01-09T09:22:45;12.68;;;4.60;;
34242;SDS011;20504;43.214;27.920;2023-01-09T09:25:12;14.55;;;3.83;;
34242;SDS011;20504;43.214;27.920;2023-01-09T09:30:05;11.65;;;4.22;;
34242;SDS011;20504;43.214;27.920;2023-01-09T09:32:31;14.75;;;4.30;;
34242;SDS011;20504;43.214;27.920;2023-01-09T09:34:57;19.73;;;4.57;;
34242;SDS011;20504;43.214;27.920;2023-01-09T09:37:23;14.57;;;4.30;;
34242;SDS011;20504;43.214;27.920;2023-01-09T09:39:48;15.90;;;4.77;;
34242;SDS011;20504;43.214;27.920;2023-01-09T09:48:42;15.35;;;4.47;;
34242;SDS011;20504;43.214;27.920;2023-01-09T09:51:31;12.77;;;4.35;;
34242;SDS011;20504;43.214;27.920;2023-01-09T09:56:38;16.30;;;5.00;;
34242;SDS011;20504;43.214;27.920;2023-01-09T09:59:14;11.40;;;3.95;;
34242;SDS011;20504;43.214;27.920;2023-01-09T10:01:44;12.75;;;3.95;;
34242;SDS011;20504;43.214;27.920;2023-01-09T10:04:19;7.85;;;4.45;;
34242;SDS011;20504;43.214;27.920;2023-01-09T10:06:56;13.65;;;3.88;;
34242;SDS011;20504;43.214;27.920;2023-01-09T10:14:55;13.27;;;4.68;;
34242;SDS011;20504;43.214;27.920;2023-01-09T10:20:25;16.33;;;4.53;;
34242;SDS011;20504;43.214;27.920;2023-01-09T10:26:03;16.77;;;4.75;;
34242;SDS011;20504;43.214;27.920;2023-01-09T10:36:47;15.02;;;4.93;;
34242;SDS011;20504;43.214;27.920;2023-01-09T10:39:30;12.68;;;5.28;;
34242;SDS011;20504;43.214;27.920;2023-01-09T10:42:10;13.77;;;4.40;;
34242;SDS011;20504;43.214;27.920;2023-01-09T10:44:49;17.50;;;5.28;;
34242;SDS011;20504;43.214;27.920;2023-01-09T10:47:27;16.60;;;5.05;;
34242;SDS011;20504;43.214;27.920;2023-01-09T10:49:56;13.13;;;5.10;;
34242;SDS011;20504;43.214;27.920;2023-01-09T10:52:34;15.13;;;5.40;;
34242;SDS011;20504;43.214;27.920;2023-01-09T10:55:11;11.85;;;4.63;;
34242;SDS011;20504;43.214;27.920;2023-01-09T10:57:44;16.52;;;5.10;;
34242;SDS011;20504;43.214;27.920;2023-01-09T11:00:20;17.63;;;5.20;;
34242;SDS011;20504;43.214;27.920;2023-01-09T11:02:48;20.25;;;4.70;;
34242;SDS011;20504;43.214;27.920;2023-01-09T11:05:14;15.57;;;4.75;;
34242;SDS011;20504;43.214;27.920;2023-01-09T11:07:54;14.45;;;5.82;;
34242;SDS011;20504;43.214;27.920;2023-01-09T11:10:20;16.67;;;5.63;;
34242;SDS011;20504;43.214;27.920;2023-01-09T11:12:45;19.50;;;4.97;;
34242;SDS011;20504;43.214;27.920;2023-01-09T11:17:51;15.35;;;5.05;;
34242;SDS011;20504;43.214;27.920;2023-01-09T11:20:17;21.47;;;5.40;;
34242;SDS011;20504;43.214;27.920;2023-01-09T11:22:46;17.25;;;5.78;;
34242;SDS011;20504;43.214;27.920;2023-01-09T11:25:17;10.32;;;4.72;;
34242;SDS011;20504;43.214;27.920;2023-01-09T11:30:25;15.60;;;5.45;;
34242;SDS011;20504;43.214;27.920;2023-01-09T11:32:52;15.02;;;5.35;;
34242;SDS011;20504;43.214;27.920;2023-01-09T11:35:53;13.98;;;5.70;;
34242;SDS011;20504;43.214;27.920;2023-01-09T11:38:19;9.52;;;4.50;;
34242;SDS011;20504;43.214;27.920;2023-01-09T11:40:47;13.93;;;5.37;;
34242;SDS011;20504;43.214;27.920;2023-01-09T11:45:44;14.40;;;5.67;;
34242;SDS011;20504;43.214;27.920;2023-01-09T11:48:27;17.23;;;5.32;;
34242;SDS011;20504;43.214;27.920;2023-01-09T11:50:56;14.63;;;5.07;;
34242;SDS011;20504;43.214;27.920;2023-01-09T11:53:23;12.63;;;5.35;;
34242;SDS011;20504;43.214;27.920;2023-01-09T11:55:57;15.15;;;5.50;;
34242;SDS011;20504;43.214;27.920;2023-01-09T11:58:31;16.00;;;5.47;;
34242;SDS011;20504;43.214;27.920;2023-01-09T12:01:03;10.45;;;5.10;;
34242;SDS011;20504;43.214;27.920;2023-01-09T12:09:30;11.77;;;6.07;;
34242;SDS011;20504;43.214;27.920;2023-01-09T12:23:36;20.40;;;6.90;;
34242;SDS011;20504;43.214;27.920;2023-01-09T12:33:51;17.55;;;7.43;;
34242;SDS011;20504;43.214;27.920;2023-01-09T12:36:52;15.85;;;7.00;;
34242;SDS011;20504;43.214;27.920;2023-01-09T12:39:30;18.73;;;7.93;;
34242;SDS011;20504;43.214;27.920;2023-01-09T12:43:03;15.65;;;7.35;;
34242;SDS011;20504;43.214;27.920;2023-01-09T12:45:39;19.75;;;9.45;;
34242;SDS011;20504;43.214;27.920;2023-01-09T12:48:24;15.27;;;7.93;;
34242;SDS011;20504;43.214;27.920;2023-01-09T12:56:59;19.52;;;9.93;;
34242;SDS011;20504;43.214;27.920;2023-01-09T13:02:31;18.65;;;9.55;;
34242;SDS011;20504;43.214;27.920;2023-01-09T13:05:08;17.25;;;8.93;;
34242;SDS011;20504;43.214;27.920;2023-01-09T13:07:42;18.75;;;9.48;;
34242;SDS011;20504;43.214;27.920;2023-01-09T13:10:18;21.45;;;10.15;;
34242;SDS011;20504;43.214;27.920;2023-01-09T13:12:45;21.85;;;10.50;;
34242;SDS011;20504;43.214;27.920;2023-01-09T13:15:29;26.17;;;11.07;;
34242;SDS011;20504;43.214;27.920;2023-01-09T13:20:43;19.77;;;10.48;;
34242;SDS011;20504;43.214;27.920;2023-01-09T13:23:17;21.83;;;10.45;;
34242;SDS011;20504;43.214;27.920;2023-01-09T13:25:53;22.67;;;10.85;;
34242;SDS011;20504;43.214;27.920;2023-01-09T13:28:25;23.05;;;10.75;;
34242;SDS011;20504;43.214;27.920;2023-01-09T13:33:27;19.08;;;10.75;;
34242;SDS011;20504;43.214;27.920;2023-01-09T13:35:57;16.48;;;10.40;;
34242;SDS011;20504;43.214;27.920;2023-01-09T13:38:24;23.35;;;10.65;;
34242;SDS011;20504;43.214;27.920;2023-01-09T13:41:06;20.40;;;10.65;;
34242;SDS011;20504;43.214;27.920;2023-01-09T13:46:49;21.90;;;10.73;;
34242;SDS011;20504;43.214;27.920;2023-01-09T14:05:09;15.32;;;8.65;;
34242;SDS011;20504;43.214;27.920;2023-01-09T14:07:40;18.83;;;7.70;;
34242;SDS011;20504;43.214;27.920;2023-01-09T14:10:22;20.75;;;8.15;;
34242;SDS011;20504;43.214;27.920;2023-01-09T14:12:50;17.77;;;8.90;;
34242;SDS011;20504;43.214;27.920;2023-01-09T14:20:56;16.67;;;8.52;;
34242;SDS011;20504;43.214;27.920;2023-01-09T14:26:02;19.80;;;9.27;;
34242;SDS011;20504;43.214;27.920;2023-01-09T14:28:29;14.95;;;7.55;;
34242;SDS011;20504;43.214;27.920;2023-01-09T14:33:24;20.70;;;8.57;;
34242;SDS011;20504;43.214;27.920;2023-01-09T14:38:37;17.17;;;6.80;;
34242;SDS011;20504;43.214;27.920;2023-01-09T14:52:44;13.65;;;6.93;;
34242;SDS011;20504;43.214;27.920;2023-01-09T14:58:34;17.80;;;8.25;;
34242;SDS011;20504;43.214;27.920;2023-01-09T15:03:40;19.25;;;7.32;;
34242;SDS011;20504;43.214;27.920;2023-01-09T15:06:25;18.30;;;7.40;;
34242;SDS011;20504;43.214;27.920;2023-01-09T15:11:32;18.42;;;8.32;;
34242;SDS011;20504;43.214;27.920;2023-01-09T15:14:01;18.00;;;8.32;;
34242;SDS011;20504;43.214;27.920;2023-01-09T15:16:27;18.67;;;7.78;;
34242;SDS011;20504;43.214;27.920;2023-01-09T15:19:00;22.77;;;8.27;;
34242;SDS011;20504;43.214;27.920;2023-01-09T15:21:28;17.13;;;7.75;;
34242;SDS011;20504;43.214;27.920;2023-01-09T15:26:40;21.38;;;8.80;;
34242;SDS011;20504;43.214;27.920;2023-01-09T15:29:13;12.97;;;8.87;;
34242;SDS011;20504;43.214;27.920;2023-01-09T15:31:42;24.40;;;10.98;;
34242;SDS011;20504;43.214;27.920;2023-01-09T15:34:19;21.63;;;10.15;;
34242;SDS011;20504;43.214;27.920;2023-01-09T15:36:46;22.23;;;8.90;;
34242;SDS011;20504;43.214;27.920;2023-01-09T15:39:23;21.35;;;9.65;;
34242;SDS011;20504;43.214;27.920;2023-01-09T15:41:52;16.70;;;10.45;;
34242;SDS011;20504;43.214;27.920;2023-01-09T15:44:38;24.17;;;11.50;;
34242;SDS011;20504;43.214;27.920;2023-01-09T15:47:07;26.48;;;12.80;;
34242;SDS011;20504;43.214;27.920;2023-01-09T15:49:38;23.38;;;10.30;;
34242;SDS011;20504;43.214;27.920;2023-01-09T15:52:04;19.77;;;10.50;;
34242;SDS011;20504;43.214;27.920;2023-01-09T15:54:35;23.10;;;9.98;;
34242;SDS011;20504;43.214;27.920;2023-01-09T15:57:21;21.63;;;9.30;;
34242;SDS011;20504;43.214;27.920;2023-01-09T16:02:17;29.70;;;10.65;;
34242;SDS011;20504;43.214;27.920;2023-01-09T16:05:06;22.02;;;8.57;;
34242;SDS011;20504;43.214;27.920;2023-01-09T16:07:43;25.65;;;10.07;;
34242;SDS011;20504;43.214;27.920;2023-01-09T16:10:20;18.30;;;9.80;;
34242;SDS011;20504;43.214;27.920;2023-01-09T16:12:47;24.85;;;9.98;;
34242;SDS011;20504;43.214;27.920;2023-01-09T16:15:16;23.13;;;10.60;;
34242;SDS011;20504;43.214;27.920;2023-01-09T16:20:48;27.48;;;10.07;;
34242;SDS011;20504;43.214;27.920;2023-01-09T16:23:27;20.70;;;10.50;;
34242;SDS011;20504;43.214;27.920;2023-01-09T16:28:27;27.58;;;10.55;;
34242;SDS011;20504;43.214;27.920;2023-01-09T16:33:23;27.20;;;10.95;;
34242;SDS011;20504;43.214;27.920;2023-01-09T16:35:51;30.95;;;11.15;;
34242;SDS011;20504;43.214;27.920;2023-01-09T16:38:17;25.40;;;11.13;;
34242;SDS011;20504;43.214;27.920;2023-01-09T16:43:43;37.45;;;22.33;;
34242;SDS011;20504;43.214;27.920;2023-01-09T16:46:10;48.28;;;23.88;;
34242;SDS011;20504;43.214;27.920;2023-01-09T16:48:37;26.92;;;14.05;;
34242;SDS011;20504;43.214;27.920;2023-01-09T16:51:03;32.65;;;12.95;;
34242;SDS011;20504;43.214;27.920;2023-01-09T16:53:29;23.45;;;9.73;;
34242;SDS011;20504;43.214;27.920;2023-01-09T16:55:56;32.85;;;12.55;;
34242;SDS011;20504;43.214;27.920;2023-01-09T16:58:29;28.33;;;12.40;;
34242;SDS011;20504;43.214;27.920;2023-01-09T17:00:56;25.38;;;11.48;;
34242;SDS011;20504;43.214;27.920;2023-01-09T17:03:22;30.45;;;14.10;;
34242;SDS011;20504;43.214;27.920;2023-01-09T17:05:49;26.25;;;13.68;;
34242;SDS011;20504;43.214;27.920;2023-01-09T17:10:48;28.55;;;13.65;;
34242;SDS011;20504;43.214;27.920;2023-01-09T17:13:18;30.50;;;13.70;;
34242;SDS011;20504;43.214;27.920;2023-01-09T17:15:44;30.63;;;14.20;;
34242;SDS011;20504;43.214;27.920;2023-01-09T17:18:14;29.63;;;14.50;;
34242;SDS011;20504;43.214;27.920;2023-01-09T17:20:41;24.55;;;14.07;;
34242;SDS011;20504;43.214;27.920;2023-01-09T17:23:08;26.42;;;15.38;;
34242;SDS011;20504;43.214;27.920;2023-01-09T17:25:34;30.23;;;15.77;;
34242;SDS011;20504;43.214;27.920;2023-01-09T17:28:18;33.95;;;17.00;;
34242;SDS011;20504;43.214;27.920;2023-01-09T17:30:56;32.50;;;17.77;;
34242;SDS011;20504;43.214;27.920;2023-01-09T17:33:24;37.00;;;18.80;;
34242;SDS011;20504;43.214;27.920;2023-01-09T17:35:49;36.33;;;18.07;;
34242;SDS011;20504;43.214;27.920;2023-01-09T17:38:15;38.63;;;21.23;;
34242;SDS011;20504;43.214;27.920;2023-01-09T17:40:41;39.97;;;20.37;;
34242;SDS011;20504;43.214;27.920;2023-01-09T17:43:08;44.00;;;21.63;;
34242;SDS011;20504;43.214;27.920;2023-01-09T17:45:33;36.03;;;21.53;;
34242;SDS011;20504;43.214;27.920;2023-01-09T17:48:00;40.03;;;21.55;;